This demonstration page uses our WeatherBlox Daily Observations layout. Learn more.

Left ArrowRight Arrow

34.74481, -87.66753

Hourly Observations for October 23, 2019

Temp ( °F °C ) Dew Point ( °F °C ) Humidity (%) Winds ( mph kmh ) Pressure ( in mb ) Visibility ( mi km ) Precip ( " mm )
1:56 am 01:56 Clear 40 4.4 40 4.4 100 100 Calm 28.69 972 10 16 0.00 0.00
2:56 am 02:56 Clear 38 3.3 38 3.3 100 100 Calm 28.70 972 10 16 0.00 0.00
3:56 am 03:56 Clear 39 3.9 38 3.3 96 96 NNW 3 6 28.71 972 10 16 0.00 0.00
4:56 am 04:56 Clear 38 3.3 37 2.8 97 97 Calm 28.74 973 10 16 0.00 0.00
5:56 am 05:56 Clear 37 2.8 36 2.2 96 96 Calm 28.81 976 10 16 0.00 0.00
6:56 am 06:56 Clear 36 2.2 36 2.2 100 100 Calm 28.85 977 10 16 0.00 0.00
7:56 am 07:56 Sunny 39 3.9 38 3.3 96 96 Calm 28.84 977 10 16 0.00 0.00
8:56 am 08:56 Sunny 50 10 45 7.2 83 83 Calm 28.83 976 10 16 0.00 0.00
9:56 am 09:56 Sunny 59 15 42 5.6 54 54 VRB 3 6 28.79 975 10 16 0.00 0.00
10:56 am 10:56 Sunny 62 16.7 32 0 32 32 E 6 9 28.78 975 10 16 0.00 0.00
11:56 am 11:56 Sunny 64 17.8 34 1.1 33 33 VRB 3 6 28.78 975 10 16 0.00 0.00
12:56 pm 12:56 Sunny 67 19.4 35 1.7 31 31 VRB 3 6 28.74 973 10 16 0.00 0.00
1:56 pm 13:56 Sunny 68 20 33 0.6 27 27 E 5 7 28.71 972 10 16 0.00 0.00
2:56 pm 14:56 Sunny 67 19.4 31 -0.6 26 26 Calm 28.71 972 10 16 0.00 0.00
3:56 pm 15:56 Sunny 68 20 32 0 26 26 ENE 5 7 28.68 971 10 16 0.00 0.00
4:56 pm 16:56 Sunny 67 19.4 33 0.6 28 28 SE 5 7 28.70 972 10 16 0.00 0.00
5:56 pm 17:56 Sunny 58 14.4 43 6.1 58 58 Calm 28.78 975 10 16 0.00 0.00
6:56 pm 18:56 Clear 51 10.6 43 6.1 74 74 Calm 28.85 977 10 16 0.00 0.00
7:56 pm 19:56 Clear 46 7.8 43 6.1 89 89 Calm 28.89 978 10 16 0.00 0.00
8:56 pm 20:56 Clear 45 7.2 43 6.1 93 93 Calm 28.82 976 10 16 0.00 0.00
9:56 pm 21:56 Clear 43 6.1 42 5.6 97 97 Calm 28.78 975 10 16 0.00 0.00
10:56 pm 22:56 Clear 43 6.1 41 5 93 93 Calm 28.75 974 9 14 0.00 0.00
11:56 pm 23:56 Clear 41 5 40 4.4 96 96 Calm 28.75 974 10 16 0.00 0.00

Powered by AerisWeather